sensor_id;sensor_type;location;lat;lon;timestamp;pressure;altitude;pressure_sealevel;temperature;humidity
71915;BME280;60387;49.994;14.660;2023-08-08T00:02:33;97606.53;;;17.01;55.29
71915;BME280;60387;49.994;14.660;2023-08-08T00:05:06;97614.72;;;17.01;55.43
71915;BME280;60387;49.994;14.660;2023-08-08T00:07:40;97602.91;;;16.97;55.38
71915;BME280;60387;49.994;14.660;2023-08-08T00:10:13;97604.03;;;16.96;55.28
71915;BME280;60387;49.994;14.660;2023-08-08T00:12:46;97601.63;;;16.95;55.10
71915;BME280;60387;49.994;14.660;2023-08-08T00:15:20;97605.53;;;16.94;55.16
71915;BME280;60387;49.994;14.660;2023-08-08T00:17:53;97607.34;;;16.90;55.43
71915;BME280;60387;49.994;14.660;2023-08-08T00:20:26;97600.63;;;16.87;55.28
71915;BME280;60387;49.994;14.660;2023-08-08T00:22:59;97618.75;;;16.92;55.33
71915;BME280;60387;49.994;14.660;2023-08-08T00:25:33;97604.97;;;16.88;55.66
71915;BME280;60387;49.994;14.660;2023-08-08T00:28:06;97609.50;;;16.84;55.56
71915;BME280;60387;49.994;14.660;2023-08-08T00:30:39;97616.69;;;16.89;55.37
71915;BME280;60387;49.994;14.660;2023-08-08T00:33:13;97610.78;;;16.87;55.54
71915;BME280;60387;49.994;14.660;2023-08-08T00:35:46;97611.91;;;16.86;55.69
71915;BME280;60387;49.994;14.660;2023-08-08T00:38:19;97616.13;;;16.83;55.56
71915;BME280;60387;49.994;14.660;2023-08-08T00:40:52;97608.97;;;16.79;55.61
71915;BME280;60387;49.994;14.660;2023-08-08T00:43:26;97610.53;;;16.80;55.55
71915;BME280;60387;49.994;14.660;2023-08-08T00:45:59;97590.16;;;16.65;55.39
71915;BME280;60387;49.994;14.660;2023-08-08T00:48:32;97603.25;;;16.72;56.02
71915;BME280;60387;49.994;14.660;2023-08-08T00:51:06;97601.22;;;16.69;55.88
71915;BME280;60387;49.994;14.660;2023-08-08T00:53:39;97604.28;;;16.67;55.25
71915;BME280;60387;49.994;14.660;2023-08-08T00:56:14;97602.81;;;16.58;55.79
71915;BME280;60387;49.994;14.660;2023-08-08T00:58:47;97599.41;;;16.61;56.19
71915;BME280;60387;49.994;14.660;2023-08-08T01:01:20;97601.69;;;16.59;56.03
71915;BME280;60387;49.994;14.660;2023-08-08T01:03:54;97600.09;;;16.58;55.82
71915;BME280;60387;49.994;14.660;2023-08-08T01:06:39;97603.84;;;16.53;56.18
71915;BME280;60387;49.994;14.660;2023-08-08T01:09:29;97595.06;;;16.48;56.09
71915;BME280;60387;49.994;14.660;2023-08-08T01:12:06;97596.75;;;16.52;56.13
71915;BME280;60387;49.994;14.660;2023-08-08T01:14:43;97599.16;;;16.54;56.10
71915;BME280;60387;49.994;14.660;2023-08-08T01:17:16;97608.63;;;16.56;56.24
71915;BME280;60387;49.994;14.660;2023-08-08T01:19:51;97590.97;;;16.54;56.18
71915;BME280;60387;49.994;14.660;2023-08-08T01:22:35;97598.47;;;16.57;56.14
71915;BME280;60387;49.994;14.660;2023-08-08T01:25:09;97605.09;;;16.56;56.17
71915;BME280;60387;49.994;14.660;2023-08-08T01:27:43;97601.69;;;16.59;56.21
71915;BME280;60387;49.994;14.660;2023-08-08T01:30:16;97612.75;;;16.62;56.25
71915;BME280;60387;49.994;14.660;2023-08-08T01:32:50;97609.63;;;16.64;56.05
71915;BME280;60387;49.994;14.660;2023-08-08T01:35:26;97599.50;;;16.64;55.88
71915;BME280;60387;49.994;14.660;2023-08-08T01:38:09;97596.44;;;16.66;55.96
71915;BME280;60387;49.994;14.660;2023-08-08T01:40:45;97589.34;;;16.65;55.77
71915;BME280;60387;49.994;14.660;2023-08-08T01:43:20;97597.81;;;16.60;55.90
71915;BME280;60387;49.994;14.660;2023-08-08T01:45:54;97595.06;;;16.60;55.96
71915;BME280;60387;49.994;14.660;2023-08-08T01:48:28;97598.47;;;16.57;55.84
71915;BME280;60387;49.994;14.660;2023-08-08T01:51:02;97592.09;;;16.53;55.89
71915;BME280;60387;49.994;14.660;2023-08-08T01:53:35;97585.75;;;16.49;55.98
71915;BME280;60387;49.994;14.660;2023-08-08T01:56:08;97572.72;;;16.46;55.98
71915;BME280;60387;49.994;14.660;2023-08-08T01:58:42;97566.69;;;16.40;55.80
71915;BME280;60387;49.994;14.660;2023-08-08T02:01:15;97572.97;;;16.41;55.67
71915;BME280;60387;49.994;14.660;2023-08-08T02:03:48;97568.84;;;16.35;56.24
71915;BME280;60387;49.994;14.660;2023-08-08T02:06:21;97566.31;;;16.30;55.85
71915;BME280;60387;49.994;14.660;2023-08-08T02:08:55;97574.50;;;16.30;55.98
71915;BME280;60387;49.994;14.660;2023-08-08T02:11:28;97579.53;;;16.28;55.91
71915;BME280;60387;49.994;14.660;2023-08-08T02:14:05;97568.03;;;16.23;56.22
71915;BME280;60387;49.994;14.660;2023-08-08T02:16:38;97583.16;;;16.20;56.04
71915;BME280;60387;49.994;14.660;2023-08-08T02:19:11;97588.53;;;16.17;56.21
71915;BME280;60387;49.994;14.660;2023-08-08T02:21:45;97586.81;;;16.12;56.46
71915;BME280;60387;49.994;14.660;2023-08-08T02:24:18;97586.69;;;16.09;56.41
71915;BME280;60387;49.994;14.660;2023-08-08T02:26:51;97591.38;;;16.08;56.59
71915;BME280;60387;49.994;14.660;2023-08-08T02:29:24;97584.97;;;16.04;56.42
71915;BME280;60387;49.994;14.660;2023-08-08T02:31:58;97582.94;;;16.01;56.23
71915;BME280;60387;49.994;14.660;2023-08-08T02:34:31;97579.75;;;15.99;56.12
71915;BME280;60387;49.994;14.660;2023-08-08T02:37:04;97579.25;;;15.97;56.39
71915;BME280;60387;49.994;14.660;2023-08-08T02:39:38;97581.53;;;15.95;56.33
71915;BME280;60387;49.994;14.660;2023-08-08T02:42:11;97582.91;;;15.89;56.43
71915;BME280;60387;49.994;14.660;2023-08-08T02:44:44;97579.81;;;15.91;56.70
71915;BME280;60387;49.994;14.660;2023-08-08T02:47:18;97576.97;;;15.87;56.38
71915;BME280;60387;49.994;14.660;2023-08-08T02:49:51;97566.03;;;15.87;56.32
71915;BME280;60387;49.994;14.660;2023-08-08T02:52:24;97569.59;;;15.88;56.47
71915;BME280;60387;49.994;14.660;2023-08-08T02:54:58;97574.94;;;15.84;56.24
71915;BME280;60387;49.994;14.660;2023-08-08T02:57:31;97565.59;;;15.85;56.30
71915;BME280;60387;49.994;14.660;2023-08-08T03:00:05;97579.25;;;15.85;56.40
71915;BME280;60387;49.994;14.660;2023-08-08T03:02:38;97570.59;;;15.83;56.61
71915;BME280;60387;49.994;14.660;2023-08-08T03:05:11;97577.19;;;15.82;56.56
71915;BME280;60387;49.994;14.660;2023-08-08T03:07:45;97577.31;;;15.86;56.34
71915;BME280;60387;49.994;14.660;2023-08-08T03:10:18;97579.69;;;15.87;56.70
71915;BME280;60387;49.994;14.660;2023-08-08T03:12:51;97587.69;;;15.92;56.63
71915;BME280;60387;49.994;14.660;2023-08-08T03:15:25;97579.94;;;15.94;56.82
71915;BME280;60387;49.994;14.660;2023-08-08T03:17:58;97584.72;;;15.97;56.56
71915;BME280;60387;49.994;14.660;2023-08-08T03:20:31;97585.22;;;15.99;56.31
71915;BME280;60387;49.994;14.660;2023-08-08T03:23:04;97570.03;;;16.02;56.50
71915;BME280;60387;49.994;14.660;2023-08-08T03:25:38;97567.91;;;16.07;56.44
71915;BME280;60387;49.994;14.660;2023-08-08T03:28:11;97580.19;;;16.13;56.34
71915;BME280;60387;49.994;14.660;2023-08-08T03:30:44;97568.25;;;16.17;56.39
71915;BME280;60387;49.994;14.660;2023-08-08T03:33:18;97577.72;;;16.20;56.48
71915;BME280;60387;49.994;14.660;2023-08-08T03:35:51;97580.88;;;16.22;56.40
71915;BME280;60387;49.994;14.660;2023-08-08T03:38:24;97577.63;;;16.28;56.22
71915;BME280;60387;49.994;14.660;2023-08-08T03:40:57;97583.66;;;16.34;56.53
71915;BME280;60387;49.994;14.660;2023-08-08T03:43:31;97580.25;;;16.37;56.49
71915;BME280;60387;49.994;14.660;2023-08-08T03:46:04;97581.50;;;16.39;56.22
71915;BME280;60387;49.994;14.660;2023-08-08T03:48:38;97583.22;;;16.44;56.42
71915;BME280;60387;49.994;14.660;2023-08-08T03:51:11;97580.94;;;16.46;56.20
71915;BME280;60387;49.994;14.660;2023-08-08T03:53:45;97580.72;;;16.51;56.37
71915;BME280;60387;49.994;14.660;2023-08-08T03:56:18;97586.63;;;16.53;56.18
71915;BME280;60387;49.994;14.660;2023-08-08T03:58:51;97579.56;;;16.52;56.33
71915;BME280;60387;49.994;14.660;2023-08-08T04:01:25;97591.88;;;16.58;55.89
71915;BME280;60387;49.994;14.660;2023-08-08T04:03:58;97583.78;;;16.61;56.08
71915;BME280;60387;49.994;14.660;2023-08-08T04:06:31;97587.75;;;16.64;55.59
71915;BME280;60387;49.994;14.660;2023-08-08T04:09:04;97597.22;;;16.66;55.57
71915;BME280;60387;49.994;14.660;2023-08-08T04:11:38;97597.34;;;16.70;55.84
71915;BME280;60387;49.994;14.660;2023-08-08T04:14:11;97590.97;;;16.66;55.95
71915;BME280;60387;49.994;14.660;2023-08-08T04:16:44;97604.41;;;16.71;55.62
71915;BME280;60387;49.994;14.660;2023-08-08T04:19:17;97592.75;;;16.74;55.48
71915;BME280;60387;49.994;14.660;2023-08-08T04:21:51;97599.16;;;16.78;55.64
71915;BME280;60387;49.994;14.660;2023-08-08T04:24:25;97597.56;;;16.77;55.46
71915;BME280;60387;49.994;14.660;2023-08-08T04:26:58;97591.66;;;16.75;55.67
71915;BME280;60387;49.994;14.660;2023-08-08T04:29:31;97596.41;;;16.78;55.44
71915;BME280;60387;49.994;14.660;2023-08-08T04:32:05;97605.41;;;16.78;55.47
71915;BME280;60387;49.994;14.660;2023-08-08T04:34:38;97611.00;;;16.82;55.60
71915;BME280;60387;49.994;14.660;2023-08-08T04:37:11;97616.13;;;16.83;55.38
71915;BME280;60387;49.994;14.660;2023-08-08T04:39:45;97621.28;;;16.85;55.47
71915;BME280;60387;49.994;14.660;2023-08-08T04:42:18;97611.81;;;16.82;55.52
71915;BME280;60387;49.994;14.660;2023-08-08T04:44:51;97621.38;;;16.88;55.39
71915;BME280;60387;49.994;14.660;2023-08-08T04:47:25;97618.28;;;16.90;55.17
71915;BME280;60387;49.994;14.660;2023-08-08T04:49:58;97609.75;;;16.91;55.13
71915;BME280;60387;49.994;14.660;2023-08-08T04:52:31;97613.94;;;17.01;54.93
71915;BME280;60387;49.994;14.660;2023-08-08T04:55:05;97630.06;;;17.42;55.19
71915;BME280;60387;49.994;14.660;2023-08-08T04:57:39;97621.03;;;17.96;55.03
71915;BME280;60387;49.994;14.660;2023-08-08T05:00:13;97620.41;;;18.30;53.84
71915;BME280;60387;49.994;14.660;2023-08-08T05:02:46;97629.53;;;18.50;53.99
71915;BME280;60387;49.994;14.660;2023-08-08T05:05:20;97618.44;;;18.62;53.49
71915;BME280;60387;49.994;14.660;2023-08-08T05:07:53;97628.72;;;18.65;53.10
71915;BME280;60387;49.994;14.660;2023-08-08T05:10:26;97617.75;;;18.65;52.62
71915;BME280;60387;49.994;14.660;2023-08-08T05:12:59;97631.72;;;18.60;52.66
71915;BME280;60387;49.994;14.660;2023-08-08T05:15:33;97628.56;;;18.58;52.20
71915;BME280;60387;49.994;14.660;2023-08-08T05:18:06;97641.03;;;18.55;52.41
71915;BME280;60387;49.994;14.660;2023-08-08T05:20:39;97646.78;;;18.50;52.28
71915;BME280;60387;49.994;14.660;2023-08-08T05:23:13;97639.97;;;18.44;52.36
71915;BME280;60387;49.994;14.660;2023-08-08T05:25:46;97638.28;;;18.40;52.60
71915;BME280;60387;49.994;14.660;2023-08-08T05:28:19;97642.09;;;18.35;52.46
71915;BME280;60387;49.994;14.660;2023-08-08T05:30:52;97639.94;;;18.29;52.35
71915;BME280;60387;49.994;14.660;2023-08-08T05:33:26;97635.50;;;18.24;52.50
71915;BME280;60387;49.994;14.660;2023-08-08T05:35:59;97633.84;;;18.20;52.83
71915;BME280;60387;49.994;14.660;2023-08-08T05:38:32;97618.88;;;18.17;52.55
71915;BME280;60387;49.994;14.660;2023-08-08T05:41:05;97620.81;;;18.17;52.88
71915;BME280;60387;49.994;14.660;2023-08-08T05:43:39;97612.94;;;18.15;52.72
71915;BME280;60387;49.994;14.660;2023-08-08T05:46:12;97607.81;;;18.14;52.93
71915;BME280;60387;49.994;14.660;2023-08-08T05:48:45;97620.81;;;18.17;52.97
71915;BME280;60387;49.994;14.660;2023-08-08T05:51:18;97602.59;;;18.24;53.24
71915;BME280;60387;49.994;14.660;2023-08-08T05:53:52;97608.47;;;18.54;52.61
71915;BME280;60387;49.994;14.660;2023-08-08T05:56:27;97615.16;;;18.87;52.53
71915;BME280;60387;49.994;14.660;2023-08-08T05:59:00;97619.16;;;19.24;51.58
71915;BME280;60387;49.994;14.660;2023-08-08T06:01:33;97614.47;;;19.63;51.66
71915;BME280;60387;49.994;14.660;2023-08-08T06:04:07;97609.97;;;20.11;51.83
71915;BME280;60387;49.994;14.660;2023-08-08T06:06:40;97617.13;;;20.61;51.39
71915;BME280;60387;49.994;14.660;2023-08-08T06:09:13;97613.97;;;21.07;49.86
71915;BME280;60387;49.994;14.660;2023-08-08T06:11:47;97612.09;;;21.41;47.19
71915;BME280;60387;49.994;14.660;2023-08-08T06:14:20;97610.81;;;21.64;48.13
71915;BME280;60387;49.994;14.660;2023-08-08T06:16:53;97620.56;;;21.88;47.21
71915;BME280;60387;49.994;14.660;2023-08-08T06:19:26;97603.34;;;21.94;46.15
71915;BME280;60387;49.994;14.660;2023-08-08T06:22:00;97620.06;;;22.12;47.15
71915;BME280;60387;49.994;14.660;2023-08-08T06:24:33;97612.38;;;22.31;46.96
71915;BME280;60387;49.994;14.660;2023-08-08T06:27:06;97626.88;;;22.61;46.75
71915;BME280;60387;49.994;14.660;2023-08-08T06:29:42;97620.38;;;22.83;43.72
71915;BME280;60387;49.994;14.660;2023-08-08T06:32:16;97630.41;;;23.05;44.87
71915;BME280;60387;49.994;14.660;2023-08-08T06:34:49;97631.38;;;23.30;43.53
71915;BME280;60387;49.994;14.660;2023-08-08T06:37:22;97642.22;;;23.63;44.35
71915;BME280;60387;49.994;14.660;2023-08-08T06:39:55;97634.88;;;23.88;44.25
71915;BME280;60387;49.994;14.660;2023-08-08T06:42:29;97644.03;;;24.06;41.57
71915;BME280;60387;49.994;14.660;2023-08-08T06:45:02;97632.59;;;24.14;41.59
71915;BME280;60387;49.994;14.660;2023-08-08T06:47:36;97629.44;;;24.16;41.49
71915;BME280;60387;49.994;14.660;2023-08-08T06:50:09;97629.44;;;24.23;42.09
71915;BME280;60387;49.994;14.660;2023-08-08T06:52:42;97621.56;;;24.39;40.59
71915;BME280;60387;49.994;14.660;2023-08-08T06:55:16;97624.75;;;24.48;39.05
71915;BME280;60387;49.994;14.660;2023-08-08T06:57:49;97632.66;;;24.53;39.84
71915;BME280;60387;49.994;14.660;2023-08-08T07:00:23;97631.91;;;24.66;41.10
71915;BME280;60387;49.994;14.660;2023-08-08T07:02:56;97632.72;;;24.91;41.50
71915;BME280;60387;49.994;14.660;2023-08-08T07:05:29;97631.13;;;25.08;39.62
71915;BME280;60387;49.994;14.660;2023-08-08T07:08:03;97650.53;;;25.15;38.39
71915;BME280;60387;49.994;14.660;2023-08-08T07:10:36;97636.28;;;25.09;38.97
71915;BME280;60387;49.994;14.660;2023-08-08T07:13:09;97645.38;;;25.13;37.41
71915;BME280;60387;49.994;14.660;2023-08-08T07:15:43;97636.28;;;25.27;38.84
71915;BME280;60387;49.994;14.660;2023-08-08T07:18:16;97644.56;;;25.48;38.59
71915;BME280;60387;49.994;14.660;2023-08-08T07:20:49;97645.28;;;25.73;37.82
71915;BME280;60387;49.994;14.660;2023-08-08T07:23:23;97641.66;;;25.97;35.87
71915;BME280;60387;49.994;14.660;2023-08-08T07:25:56;97646.75;;;26.09;35.69
71915;BME280;60387;49.994;14.660;2023-08-08T07:28:29;97641.94;;;26.20;36.05
71915;BME280;60387;49.994;14.660;2023-08-08T07:31:03;97631.56;;;26.31;36.37
71915;BME280;60387;49.994;14.660;2023-08-08T07:33:36;97644.06;;;26.67;36.65
71915;BME280;60387;49.994;14.660;2023-08-08T07:36:09;97641.63;;;26.76;34.59
71915;BME280;60387;49.994;14.660;2023-08-08T07:38:42;97639.56;;;26.80;33.90
71915;BME280;60387;49.994;14.660;2023-08-08T07:41:16;97641.19;;;26.81;34.94
71915;BME280;60387;49.994;14.660;2023-08-08T07:43:49;97650.66;;;26.87;34.61
71915;BME280;60387;49.994;14.660;2023-08-08T07:46:22;97648.16;;;27.03;35.04
71915;BME280;60387;49.994;14.660;2023-08-08T07:48:56;97646.34;;;27.29;34.76
71915;BME280;60387;49.994;14.660;2023-08-08T07:51:29;97654.44;;;27.54;34.68
71915;BME280;60387;49.994;14.660;2023-08-08T07:54:03;97658.59;;;27.72;34.45
71915;BME280;60387;49.994;14.660;2023-08-08T07:56:36;97658.81;;;27.92;35.87
71915;BME280;60387;49.994;14.660;2023-08-08T07:59:09;97656.59;;;28.10;32.98
71915;BME280;60387;49.994;14.660;2023-08-08T08:01:42;97646.66;;;28.09;32.42
71915;BME280;60387;49.994;14.660;2023-08-08T08:04:16;97639.84;;;27.83;31.12
71915;BME280;60387;49.994;14.660;2023-08-08T08:06:49;97650.34;;;27.65;32.99
71915;BME280;60387;49.994;14.660;2023-08-08T08:09:22;97637.00;;;27.50;32.27
71915;BME280;60387;49.994;14.660;2023-08-08T08:11:55;97641.31;;;27.54;32.41
71915;BME280;60387;49.994;14.660;2023-08-08T08:14:29;97630.41;;;27.70;32.46
71915;BME280;60387;49.994;14.660;2023-08-08T08:17:02;97634.88;;;27.98;32.67
71915;BME280;60387;49.994;14.660;2023-08-08T08:19:35;97635.66;;;28.28;32.03
71915;BME280;60387;49.994;14.660;2023-08-08T08:22:09;97623.78;;;28.54;33.05
71915;BME280;60387;49.994;14.660;2023-08-08T08:24:42;97632.34;;;28.67;29.37
71915;BME280;60387;49.994;14.660;2023-08-08T08:27:15;97632.66;;;28.72;30.81
71915;BME280;60387;49.994;14.660;2023-08-08T08:29:48;97624.53;;;28.81;30.87
71915;BME280;60387;49.994;14.660;2023-08-08T08:32:22;97624.78;;;28.90;30.06
71915;BME280;60387;49.994;14.660;2023-08-08T08:34:55;97625.66;;;28.87;30.55
71915;BME280;60387;49.994;14.660;2023-08-08T08:37:28;97624.34;;;28.69;30.79
71915;BME280;60387;49.994;14.660;2023-08-08T08:40:02;97619.06;;;28.51;30.45
71915;BME280;60387;49.994;14.660;2023-08-08T08:42:35;97620.47;;;28.33;30.88
71915;BME280;60387;49.994;14.660;2023-08-08T08:45:11;97620.47;;;28.36;31.49
71915;BME280;60387;49.994;14.660;2023-08-08T08:47:46;97619.41;;;28.53;31.52
71915;BME280;60387;49.994;14.660;2023-08-08T08:50:20;97622.09;;;28.60;31.11
71915;BME280;60387;49.994;14.660;2023-08-08T08:52:54;97622.09;;;28.60;31.03
71915;BME280;60387;49.994;14.660;2023-08-08T08:55:28;97618.19;;;28.54;30.89
71915;BME280;60387;49.994;14.660;2023-08-08T08:58:03;97616.78;;;28.43;30.58
71915;BME280;60387;49.994;14.660;2023-08-08T09:00:37;97608.53;;;28.32;30.29
71915;BME280;60387;49.994;14.660;2023-08-08T09:03:10;97610.63;;;28.25;32.11
71915;BME280;60387;49.994;14.660;2023-08-08T09:05:45;97606.78;;;28.15;30.39
71915;BME280;60387;49.994;14.660;2023-08-08T09:08:18;97600.53;;;28.08;31.28
71915;BME280;60387;49.994;14.660;2023-08-08T09:10:51;97607.06;;;27.94;29.25
71915;BME280;60387;49.994;14.660;2023-08-08T09:13:25;97604.09;;;27.78;30.29
71915;BME280;60387;49.994;14.660;2023-08-08T09:15:59;97613.78;;;27.63;29.88
71915;BME280;60387;49.994;14.660;2023-08-08T09:18:32;97600.31;;;27.58;31.12
71915;BME280;60387;49.994;14.660;2023-08-08T09:21:05;97601.81;;;27.66;30.66
71915;BME280;60387;49.994;14.660;2023-08-08T09:23:39;97604.09;;;27.78;30.06
71915;BME280;60387;49.994;14.660;2023-08-08T09:26:13;97602.34;;;27.91;30.53
71915;BME280;60387;49.994;14.660;2023-08-08T09:28:46;97598.16;;;28.06;30.34
71915;BME280;60387;49.994;14.660;2023-08-08T09:31:20;97601.59;;;28.17;29.68
71915;BME280;60387;49.994;14.660;2023-08-08T09:33:57;97608.38;;;28.16;30.32
71915;BME280;60387;49.994;14.660;2023-08-08T09:36:31;97600.56;;;28.04;30.07
71915;BME280;60387;49.994;14.660;2023-08-08T09:39:04;97600.25;;;27.99;29.88
71915;BME280;60387;49.994;14.660;2023-08-08T09:41:38;97596.34;;;27.93;30.57
71915;BME280;60387;49.994;14.660;2023-08-08T09:44:11;97602.44;;;27.84;30.19
71915;BME280;60387;49.994;14.660;2023-08-08T09:46:45;97594.53;;;27.79;29.98
71915;BME280;60387;49.994;14.660;2023-08-08T09:49:18;97595.38;;;27.76;29.74
71915;BME280;60387;49.994;14.660;2023-08-08T09:51:53;97583.44;;;27.76;30.03
71915;BME280;60387;49.994;14.660;2023-08-08T09:54:28;97597.59;;;27.88;29.80
71915;BME280;60387;49.994;14.660;2023-08-08T09:57:01;97593.59;;;27.89;30.02
71915;BME280;60387;49.994;14.660;2023-08-08T09:59:35;97599.22;;;27.86;30.11
71915;BME280;60387;49.994;14.660;2023-08-08T10:02:13;97593.22;;;27.87;29.59
71915;BME280;60387;49.994;14.660;2023-08-08T10:04:47;97597.59;;;27.88;29.90
71915;BME280;60387;49.994;14.660;2023-08-08T10:07:20;97579.78;;;27.82;29.93
71915;BME280;60387;49.994;14.660;2023-08-08T10:09:54;97581.22;;;27.94;28.51
71915;BME280;60387;49.994;14.660;2023-08-08T10:12:27;97578.00;;;27.95;29.17
71915;BME280;60387;49.994;14.660;2023-08-08T10:15:00;97579.09;;;28.05;29.22
71915;BME280;60387;49.994;14.660;2023-08-08T10:17:41;97570.28;;;28.06;28.09
71915;BME280;60387;49.994;14.660;2023-08-08T10:20:18;97575.72;;;28.17;28.41
71915;BME280;60387;49.994;14.660;2023-08-08T10:22:53;97569.69;;;28.22;28.33
71915;BME280;60387;49.994;14.660;2023-08-08T10:25:28;97577.59;;;28.23;28.79
71915;BME280;60387;49.994;14.660;2023-08-08T10:28:12;97578.19;;;28.11;28.71
71915;BME280;60387;49.994;14.660;2023-08-08T10:30:47;97579.19;;;27.98;28.23
71915;BME280;60387;49.994;14.660;2023-08-08T10:33:42;97578.94;;;27.85;28.82
71915;BME280;60387;49.994;14.660;2023-08-08T10:36:15;97568.22;;;27.84;29.33
71915;BME280;60387;49.994;14.660;2023-08-08T10:38:49;97553.34;;;27.94;29.96
71915;BME280;60387;49.994;14.660;2023-08-08T10:41:26;97562.31;;;28.08;28.60
71915;BME280;60387;49.994;14.660;2023-08-08T10:43:59;97553.69;;;27.99;28.02
71915;BME280;60387;49.994;14.660;2023-08-08T10:46:33;97560.19;;;27.89;27.78
71915;BME280;60387;49.994;14.660;2023-08-08T10:49:06;97550.81;;;27.76;27.80
71915;BME280;60387;49.994;14.660;2023-08-08T10:51:41;97557.66;;;27.68;27.38
71915;BME280;60387;49.994;14.660;2023-08-08T10:54:24;97543.25;;;27.77;28.85
71915;BME280;60387;49.994;14.660;2023-08-08T10:56:58;97545.63;;;28.08;28.49
71915;BME280;60387;49.994;14.660;2023-08-08T10:59:38;97530.19;;;28.27;27.76
71915;BME280;60387;49.994;14.660;2023-08-08T11:02:12;97538.09;;;28.32;27.56
71915;BME280;60387;49.994;14.660;2023-08-08T11:04:46;97527.72;;;28.32;28.70
71915;BME280;60387;49.994;14.660;2023-08-08T11:07:20;97528.53;;;28.33;28.38
71915;BME280;60387;49.994;14.660;2023-08-08T11:09:54;97527.88;;;28.48;28.78
71915;BME280;60387;49.994;14.660;2023-08-08T11:12:27;97523.66;;;28.63;27.72
71915;BME280;60387;49.994;14.660;2023-08-08T11:15:00;97523.25;;;28.65;27.74
71915;BME280;60387;49.994;14.660;2023-08-08T11:17:34;97516.53;;;28.62;27.28
71915;BME280;60387;49.994;14.660;2023-08-08T11:20:07;97508.78;;;28.50;27.25
71915;BME280;60387;49.994;14.660;2023-08-08T11:22:41;97506.44;;;28.45;28.36
71915;BME280;60387;49.994;14.660;2023-08-08T11:25:15;97508.03;;;28.46;28.14
71915;BME280;60387;49.994;14.660;2023-08-08T11:27:49;97503.09;;;28.54;28.34
71915;BME280;60387;49.994;14.660;2023-08-08T11:30:27;97511.66;;;28.89;27.22
71915;BME280;60387;49.994;14.660;2023-08-08T11:33:01;97493.06;;;29.25;27.89
71915;BME280;60387;49.994;14.660;2023-08-08T11:35:34;97509.63;;;29.55;26.39
71915;BME280;60387;49.994;14.660;2023-08-08T11:38:08;97494.38;;;29.60;26.56
71915;BME280;60387;49.994;14.660;2023-08-08T11:40:42;97496.97;;;29.51;26.27
71915;BME280;60387;49.994;14.660;2023-08-08T11:43:16;97494.78;;;29.39;27.64
71915;BME280;60387;49.994;14.660;2023-08-08T11:45:50;97488.22;;;29.29;26.97
71915;BME280;60387;49.994;14.660;2023-08-08T11:48:24;97482.91;;;29.15;26.71
71915;BME280;60387;49.994;14.660;2023-08-08T11:50:57;97488.44;;;28.96;26.14
71915;BME280;60387;49.994;14.660;2023-08-08T11:53:30;97489.13;;;28.57;26.27
71915;BME280;60387;49.994;14.660;2023-08-08T11:56:04;97483.94;;;28.33;26.66
71915;BME280;60387;49.994;14.660;2023-08-08T11:58:37;97487.13;;;28.31;26.78
71915;BME280;60387;49.994;14.660;2023-08-08T12:01:10;97481.06;;;28.40;27.50
71915;BME280;60387;49.994;14.660;2023-08-08T12:03:45;97481.50;;;28.61;27.06
71915;BME280;60387;49.994;14.660;2023-08-08T12:06:19;97476.03;;;28.77;26.32
71915;BME280;60387;49.994;14.660;2023-08-08T12:08:53;97476.31;;;28.83;26.65
71915;BME280;60387;49.994;14.660;2023-08-08T12:11:27;97476.63;;;28.88;26.73
71915;BME280;60387;49.994;14.660;2023-08-08T12:14:00;97478.31;;;29.05;27.01
71915;BME280;60387;49.994;14.660;2023-08-08T12:16:33;97459.94;;;29.27;25.49
71915;BME280;60387;49.994;14.660;2023-08-08T12:19:08;97468.19;;;29.54;24.89
71915;BME280;60387;49.994;14.660;2023-08-08T12:21:41;97456.56;;;29.75;26.13
71915;BME280;60387;49.994;14.660;2023-08-08T12:24:14;97473.09;;;30.01;25.02
71915;BME280;60387;49.994;14.660;2023-08-08T12:26:48;97468.34;;;30.18;25.36
71915;BME280;60387;49.994;14.660;2023-08-08T12:29:21;97469.94;;;30.35;24.48
71915;BME280;60387;49.994;14.660;2023-08-08T12:31:54;97466.16;;;30.41;24.12
71915;BME280;60387;49.994;14.660;2023-08-08T12:34:27;97470.53;;;30.26;23.79
71915;BME280;60387;49.994;14.660;2023-08-08T12:37:01;97449.06;;;30.23;23.89
71915;BME280;60387;49.994;14.660;2023-08-08T12:39:34;97457.84;;;30.22;23.81
71915;BME280;60387;49.994;14.660;2023-08-08T12:42:08;97451.13;;;30.19;23.89
71915;BME280;60387;49.994;14.660;2023-08-08T12:44:41;97451.31;;;30.28;23.24
71915;BME280;60387;49.994;14.660;2023-08-08T12:47:14;97451.13;;;30.35;23.29
71915;BME280;60387;49.994;14.660;2023-08-08T12:49:48;97456.38;;;30.33;22.68
71915;BME280;60387;49.994;14.660;2023-08-08T12:52:21;97444.59;;;30.26;23.05
71915;BME280;60387;49.994;14.660;2023-08-08T12:54:54;97458.03;;;30.15;22.79
71915;BME280;60387;49.994;14.660;2023-08-08T12:57:27;97452.84;;;29.97;23.67
71915;BME280;60387;49.994;14.660;2023-08-08T13:00:01;97440.22;;;29.73;23.74
71915;BME280;60387;49.994;14.660;2023-08-08T13:02:34;97441.53;;;29.69;24.16
71915;BME280;60387;49.994;14.660;2023-08-08T13:05:07;97436.56;;;29.76;24.33
71915;BME280;60387;49.994;14.660;2023-08-08T13:07:41;97447.41;;;29.90;23.73
71915;BME280;60387;49.994;14.660;2023-08-08T13:10:14;97436.47;;;30.15;23.21
71915;BME280;60387;49.994;14.660;2023-08-08T13:12:48;97424.22;;;30.25;23.54
71915;BME280;60387;49.994;14.660;2023-08-08T13:15:21;97429.13;;;30.21;23.32
71915;BME280;60387;49.994;14.660;2023-08-08T13:17:54;97433.50;;;30.22;23.20
71915;BME280;60387;49.994;14.660;2023-08-08T13:20:28;97438.72;;;30.20;22.97
71915;BME280;60387;49.994;14.660;2023-08-08T13:23:01;97430.88;;;30.15;23.07
71915;BME280;60387;49.994;14.660;2023-08-08T13:25:34;97424.56;;;30.11;22.54